Time;durP1;ratioP1;P1;durP2;ratioP2;P2;SDS_P1;SDS_P2;PMS_P1;PMS_P2;Temp;Humidity;BMP_temperature;BMP_pressure;BME280_temperature;BME280_humidity;BME280_pressure;Samples;Min_cycle;Max_cycle;Signal;HPM_P1;HPM_P2
2021/08/30 00:01:33;;;;;;;1.00;0.73;;;;;;;12.54;100.00;95817.38;4971524;28;20784;-75
2021/08/30 00:03:59;;;;;;;1.42;0.88;;;;;;;12.50;100.00;95811.56;4971616;28;20423;-75
2021/08/30 00:06:24;;;;;;;0.60;0.60;;;;;;;12.49;100.00;95811.66;4971349;28;20412;-75
2021/08/30 00:08:49;;;;;;;2.63;1.10;;;;;;;12.43;100.00;95804.31;4971530;28;20478;-75
2021/08/30 00:11:17;;;;;;;3.80;1.00;;;;;;;12.49;100.00;95812.47;4971488;28;20914;-75
2021/08/30 00:13:44;;;;;;;0.90;0.90;;;;;;;12.47;100.00;95805.75;4971507;28;20432;-75
2021/08/30 00:16:10;;;;;;;1.37;0.90;;;;;;;12.55;100.00;95803.44;4971847;28;20513;-75
2021/08/30 00:18:35;;;;;;;1.40;1.20;;;;;;;12.58;100.00;95809.25;4974787;28;20459;-75
2021/08/30 00:21:01;;;;;;;1.30;1.20;;;;;;;12.57;100.00;95806.78;4974939;28;20838;-75
2021/08/30 00:23:26;;;;;;;2.30;1.13;;;;;;;12.60;100.00;95796.16;4974918;28;20474;-75
2021/08/30 00:25:52;;;;;;;2.30;1.40;;;;;;;12.57;100.00;95799.00;4973352;28;20431;-75
2021/08/30 00:28:17;;;;;;;1.70;1.20;;;;;;;12.58;100.00;95804.06;4973490;28;20428;-75
2021/08/30 00:30:44;;;;;;;1.48;1.30;;;;;;;12.50;100.00;95800.34;4973433;28;20428;-75
2021/08/30 00:33:09;;;;;;;1.40;1.30;;;;;;;12.44;100.00;95804.19;4974697;28;20424;-74
2021/08/30 00:35:35;;;;;;;2.15;1.33;;;;;;;12.51;100.00;95802.00;4974367;28;20474;-75
2021/08/30 00:38:00;;;;;;;1.40;1.27;;;;;;;12.41;100.00;95796.59;4974857;28;20424;-75
2021/08/30 00:40:26;;;;;;;1.80;1.30;;;;;;;12.45;100.00;95798.06;4973299;28;20435;-75
2021/08/30 00:42:51;;;;;;;2.13;1.93;;;;;;;12.42;100.00;95800.03;4974581;28;20420;-75
2021/08/30 00:45:17;;;;;;;2.10;1.90;;;;;;;12.44;100.00;95796.41;4974125;28;20426;-75
2021/08/30 00:47:45;;;;;;;2.70;1.80;;;;;;;12.50;100.00;95800.34;4974406;28;20545;-75
2021/08/30 00:50:13;;;;;;;2.53;1.85;;;;;;;12.55;100.00;95798.25;4974537;28;20623;-75
2021/08/30 00:52:40;;;;;;;2.45;1.90;;;;;;;12.59;100.00;95799.69;4973124;28;20503;-74
2021/08/30 00:55:07;;;;;;;2.42;1.95;;;;;;;12.62;100.00;95803.84;4974229;28;20416;-74
2021/08/30 00:57:33;;;;;;;2.65;2.03;;;;;;;12.64;100.00;95792.38;4972797;28;20428;-75
2021/08/30 00:59:58;;;;;;;2.33;2.13;;;;;;;12.66;100.00;95800.91;4974099;28;20932;-75
2021/08/30 01:02:24;;;;;;;2.90;2.40;;;;;;;12.55;100.00;95799.06;4974240;28;20424;-75
2021/08/30 01:04:51;;;;;;;2.70;2.10;;;;;;;12.48;100.00;95799.63;4974213;28;20502;-74
2021/08/30 01:07:24;;;;;;;3.20;2.83;;;;;;;12.53;100.00;95794.91;4972647;28;20436;-74
2021/08/30 01:09:55;;;;;;;5.70;3.03;;;;;;;12.54;100.00;95797.41;4974104;28;20417;-74
2021/08/30 01:12:26;;;;;;;3.20;2.90;;;;;;;12.48;100.00;95786.63;4973842;28;20515;-74
2021/08/30 01:14:56;;;;;;;3.60;3.20;;;;;;;12.50;100.00;95797.75;4973976;28;20439;-74
2021/08/30 01:17:23;;;;;;;3.33;3.13;;;;;;;12.47;100.00;95790.16;4973480;28;20423;-75
2021/08/30 01:19:56;;;;;;;3.38;3.08;;;;;;;12.50;100.00;95792.56;4973899;28;20862;-74
2021/08/30 01:22:24;;;;;;;3.67;3.38;;;;;;;12.52;100.00;95795.88;4973802;28;20525;-74
2021/08/30 01:24:50;;;;;;;3.50;3.20;;;;;;;12.49;100.00;95790.88;4973721;28;20510;-74
2021/08/30 01:27:16;;;;;;;3.33;3.00;;;;;;;12.56;100.00;95794.72;4972374;28;20608;-74
2021/08/30 01:29:51;;;;;;;3.45;3.15;;;;;;;12.50;100.00;95789.97;4973740;28;20424;-75
2021/08/30 01:32:28;;;;;;;4.03;2.97;;;;;;;12.53;100.00;95789.72;4973639;28;20424;-75
2021/08/30 01:34:54;;;;;;;3.77;3.47;;;;;;;12.56;100.00;95782.53;4973644;28;20456;-74
2021/08/30 01:37:20;;;;;;;4.75;3.58;;;;;;;12.62;100.00;95783.88;4973206;28;20909;-75
2021/08/30 01:39:46;;;;;;;3.55;3.30;;;;;;;12.57;100.00;95778.19;4973351;28;20751;-74
2021/08/30 01:42:11;;;;;;;3.90;3.38;;;;;;;12.57;100.00;95773.84;4973400;28;20822;-75
2021/08/30 01:44:37;;;;;;;3.97;3.30;;;;;;;12.60;100.00;95770.16;4973404;28;20490;-74
2021/08/30 01:47:04;;;;;;;3.83;3.50;;;;;;;12.47;100.00;95775.41;4972911;28;20474;-75
2021/08/30 01:49:32;;;;;;;4.50;3.50;;;;;;;12.54;100.00;95771.44;4973312;28;20499;-75
2021/08/30 01:51:58;;;;;;;7.30;3.40;;;;;;;12.58;100.00;95764.25;4973179;28;20420;-75
2021/08/30 01:54:25;;;;;;;3.65;3.35;;;;;;;12.53;100.00;95768.94;4973261;28;20421;-75
2021/08/30 01:56:53;;;;;;;4.23;3.73;;;;;;;12.51;100.00;95774.25;4972847;28;20926;-74
2021/08/30 02:02:06;;;;;;;3.40;3.10;;;;;;;12.52;100.00;95765.50;4973131;28;20478;-75
2021/08/30 02:04:33;;;;;;;2.80;2.60;;;;;;;12.52;100.00;95768.13;4971652;28;20432;-75
2021/08/30 02:06:58;;;;;;;4.63;3.17;;;;;;;12.55;100.00;95759.28;4972759;28;20443;-75
2021/08/30 02:09:24;;;;;;;3.23;2.90;;;;;;;12.54;100.00;95755.03;4972946;28;20743;-75
2021/08/30 02:11:49;;;;;;;3.72;3.40;;;;;;;12.48;100.00;95764.06;4972876;28;20498;-75
2021/08/30 02:14:15;;;;;;;3.08;2.88;;;;;;;12.42;100.00;95761.94;4972865;28;20515;-75
2021/08/30 02:16:40;;;;;;;3.72;3.42;;;;;;;12.34;100.00;95767.63;4972547;28;20467;-76
2021/08/30 02:19:17;;;;;;;4.20;3.60;;;;;;;12.35;100.00;95768.47;5008100;23;20442;-76
2021/08/30 02:21:48;;;;;;;3.97;3.67;;;;;;;12.36;100.00;95770.13;4985521;28;20521;-77
2021/08/30 02:24:22;;;;;;;4.50;4.05;;;;;;;12.37;100.00;95773.56;4998757;28;20480;-77
2021/08/30 02:26:52;;;;;;;4.82;4.25;;;;;;;12.37;100.00;95770.97;4992226;28;20449;-76
2021/08/30 02:29:22;;;;;;;5.38;4.88;;;;;;;12.34;100.00;95767.63;4975468;28;20422;-77
2021/08/30 02:31:53;;;;;;;4.20;3.80;;;;;;;12.38;100.00;95770.84;4992833;28;20414;-76
2021/08/30 02:34:22;;;;;;;4.28;3.95;;;;;;;12.34;100.00;95766.81;4992319;28;20461;-76
2021/08/30 02:36:51;;;;;;;4.55;4.15;;;;;;;12.39;100.00;95766.50;4974593;28;20422;-77
2021/08/30 02:39:18;;;;;;;5.22;4.45;;;;;;;12.37;100.00;95773.56;4991871;28;20430;-77
2021/08/30 02:41:45;;;;;;;5.10;4.65;;;;;;;12.35;100.00;95766.72;4992209;28;20423;-76
2021/08/30 02:44:11;;;;;;;4.57;4.13;;;;;;;12.35;100.00;95768.47;4991870;28;20421;-77
2021/08/30 02:46:38;;;;;;;5.07;4.65;;;;;;;12.37;100.00;95765.78;4991728;28;20772;-76
2021/08/30 02:49:04;;;;;;;5.28;4.45;;;;;;;12.38;100.00;95763.06;4991879;28;20422;-77
2021/08/30 02:51:30;;;;;;;5.38;4.78;;;;;;;12.37;100.00;95747.59;4974720;28;20765;-77
2021/08/30 02:53:58;;;;;;;5.18;4.78;;;;;;;12.32;100.00;95745.31;4974685;28;20461;-76
2021/08/30 02:56:24;;;;;;;4.85;4.40;;;;;;;12.30;100.00;95749.78;4991674;28;20900;-77
2021/08/30 02:58:50;;;;;;;7.03;5.38;;;;;;;12.29;100.00;95750.72;4974677;28;20426;-78
2021/08/30 03:01:17;;;;;;;5.90;5.40;;;;;;;12.26;100.00;95748.34;4975094;28;20521;-77
2021/08/30 03:03:44;;;;;;;5.72;5.22;;;;;;;12.26;100.00;95750.94;4974897;28;20432;-78
2021/08/30 03:06:10;;;;;;;6.13;5.50;;;;;;;12.31;100.00;95757.47;4992253;28;20825;-77
2021/08/30 03:08:35;;;;;;;6.30;5.65;;;;;;;12.35;100.00;95747.72;4974452;28;20422;-77
2021/08/30 03:11:05;;;;;;;5.90;5.38;;;;;;;12.40;100.00;95755.16;4974718;28;20431;-77
2021/08/30 03:13:31;;;;;;;4.68;4.32;;;;;;;12.30;100.00;95753.19;4992543;28;20423;-77
2021/08/30 03:15:57;;;;;;;4.05;3.70;;;;;;;12.33;100.00;95755.59;4992644;28;20951;-77
2021/08/30 03:18:22;;;;;;;4.18;3.20;;;;;;;12.33;100.00;95755.59;4992529;28;20517;-77
2021/08/30 03:20:52;;;;;;;3.25;2.92;;;;;;;12.36;100.00;95749.34;4992391;28;20461;-78
2021/08/30 03:23:19;;;;;;;2.93;2.43;;;;;;;12.34;100.00;95751.22;4993380;28;20792;-78
2021/08/30 03:25:46;;;;;;;2.53;2.00;;;;;;;12.32;100.00;95750.50;4975573;28;20432;-78
2021/08/30 03:28:14;;;;;;;2.42;2.22;;;;;;;12.33;100.00;95753.00;4993501;28;20430;-78
2021/08/30 03:30:40;;;;;;;2.60;2.08;;;;;;;12.35;100.00;95751.13;4976473;28;20510;-77
2021/08/30 03:33:06;;;;;;;2.20;2.10;;;;;;;12.40;100.00;95749.97;4976863;28;20960;-79
2021/08/30 03:35:34;;;;;;;2.93;2.53;;;;;;;12.31;100.00;95747.09;4976297;28;20559;-79
2021/08/30 03:38:00;;;;;;;2.03;1.83;;;;;;;12.31;100.00;95747.09;4994250;28;20415;-80
2021/08/30 03:40:27;;;;;;;1.55;1.45;;;;;;;12.28;100.00;95744.69;4976536;28;20554;-80
2021/08/30 03:42:54;;;;;;;1.67;1.38;;;;;;;12.27;100.00;95744.78;4976733;28;20422;-80
2021/08/30 03:45:21;;;;;;;1.27;1.17;;;;;;;12.25;100.00;95744.91;4976139;28;20419;-78
2021/08/30 03:47:47;;;;;;;1.70;1.10;;;;;;;12.23;100.00;95746.78;4977488;28;20548;-80
2021/08/30 03:50:14;;;;;;;1.60;1.23;;;;;;;12.28;100.00;95741.28;4977540;28;20853;-80
2021/08/30 03:52:41;;;;;;;1.23;0.80;;;;;;;12.28;100.00;95751.66;4979904;28;20445;-78
2021/08/30 03:55:10;;;;;;;0.85;0.80;;;;;;;12.34;100.00;95751.22;4979531;28;20428;-79
2021/08/30 03:57:36;;;;;;;2.40;1.20;;;;;;;12.31;100.00;95748.84;4979568;28;20421;-79
2021/08/30 04:00:03;;;;;;;1.15;0.90;;;;;;;12.33;100.00;95753.00;4997161;28;20747;-79
2021/08/30 04:02:31;;;;;;;1.45;1.02;;;;;;;12.32;100.00;95745.31;4997288;28;20426;-78
2021/08/30 04:04:58;;;;;;;1.25;1.15;;;;;;;12.27;100.00;95748.25;4980080;28;20414;-79
2021/08/30 04:07:24;;;;;;;1.20;1.10;;;;;;;12.30;100.00;95748.00;4997402;28;20497;-79
2021/08/30 04:09:51;;;;;;;2.35;1.35;;;;;;;12.33;100.00;95749.56;4979805;28;20422;-80
2021/08/30 04:12:17;;;;;;;1.52;1.33;;;;;;;12.29;100.00;95756.75;4980287;28;20465;-78
2021/08/30 04:14:43;;;;;;;2.28;1.52;;;;;;;12.33;100.00;95754.75;4997250;28;20418;-79
2021/08/30 04:17:09;;;;;;;1.17;1.08;;;;;;;12.42;100.00;95750.69;4999438;28;20429;-79
2021/08/30 04:19:35;;;;;;;1.70;1.60;;;;;;;12.41;100.00;95756.81;4983082;28;20434;-79
2021/08/30 04:22:01;;;;;;;2.25;1.65;;;;;;;12.37;100.00;95751.00;5001706;28;20425;-80
2021/08/30 04:24:27;;;;;;;2.08;1.98;;;;;;;12.39;100.00;95751.75;5000973;28;20442;-79
2021/08/30 04:26:52;;;;;;;1.85;1.73;;;;;;;12.42;100.00;95741.16;4984458;28;20418;-79
2021/08/30 04:29:18;;;;;;;2.90;2.30;;;;;;;12.41;100.00;95751.63;4998504;28;20426;-80
2021/08/30 04:31:43;;;;;;;2.97;2.67;;;;;;;12.35;100.00;95745.13;4999670;28;20505;-80
2021/08/30 04:34:09;;;;;;;2.73;2.47;;;;;;;12.40;100.00;95737.81;4980829;28;20426;-79
2021/08/30 04:36:35;;;;;;;2.90;2.70;;;;;;;12.45;100.00;95746.09;4998434;28;20414;-80
2021/08/30 04:39:01;;;;;;;5.10;3.10;;;;;;;12.42;100.00;95751.53;4980656;28;20776;-80
2021/08/30 04:41:26;;;;;;;3.67;3.27;;;;;;;12.39;100.00;95746.56;4996207;28;20444;-78
2021/08/30 04:43:52;;;;;;;3.55;3.10;;;;;;;12.46;100.00;95749.53;4982531;28;20430;-78
2021/08/30 04:46:18;;;;;;;6.20;4.10;;;;;;;12.46;100.00;95762.50;4995104;28;20524;-79
2021/08/30 04:48:43;;;;;;;4.30;3.67;;;;;;;12.46;100.00;95757.31;4998822;28;20513;-78
2021/08/30 04:51:09;;;;;;;4.47;4.07;;;;;;;12.55;100.00;95761.88;4980289;28;20434;-78
2021/08/30 04:53:36;;;;;;;5.03;3.88;;;;;;;12.45;100.00;95758.25;4998231;28;20505;-78
2021/08/30 04:56:01;;;;;;;4.53;4.07;;;;;;;12.45;100.00;95764.28;4976117;28;20491;-80
2021/08/30 04:58:27;;;;;;;4.13;3.72;;;;;;;12.45;100.00;95759.09;4996670;28;20418;-79
2021/08/30 05:00:52;;;;;;;4.47;4.07;;;;;;;12.49;100.00;95762.31;4982788;28;20458;-79
2021/08/30 05:03:18;;;;;;;4.20;3.80;;;;;;;12.44;100.00;95761.81;4978924;28;20839;-79
2021/08/30 05:05:43;;;;;;;4.40;4.00;;;;;;;12.43;100.00;95760.16;4979206;28;20433;-79
2021/08/30 05:08:08;;;;;;;5.57;4.57;;;;;;;12.46;100.00;95762.50;4996968;28;20426;-79
2021/08/30 05:10:37;;;;;;;4.97;4.47;;;;;;;12.45;100.00;95760.84;4996820;28;20513;-79
2021/08/30 05:13:03;;;;;;;4.65;4.25;;;;;;;12.52;100.00;95760.31;5016615;28;20420;-79
2021/08/30 05:15:28;;;;;;;5.00;4.60;;;;;;;12.51;100.00;95769.06;4999159;28;20433;-79
2021/08/30 05:17:53;;;;;;;5.03;4.53;;;;;;;12.54;100.00;95768.03;5017795;28;20527;-79
2021/08/30 05:20:19;;;;;;;6.00;4.70;;;;;;;12.45;100.00;95766.06;5009705;28;20424;-79
2021/08/30 05:22:45;;;;;;;4.73;4.33;;;;;;;12.50;100.00;95763.97;5029403;28;20480;-79
2021/08/30 05:25:11;;;;;;;5.22;4.28;;;;;;;12.52;100.00;95772.47;5005077;28;20418;-79
2021/08/30 05:27:38;;;;;;;4.40;3.97;;;;;;;12.49;100.00;95770.91;5002767;28;20857;-79
2021/08/30 05:30:04;;;;;;;4.80;4.40;;;;;;;12.49;100.00;95770.91;4997009;28;20769;-79
2021/08/30 05:32:31;;;;;;;16.20;5.00;;;;;;;12.50;100.00;95769.19;4978848;28;20434;-79
2021/08/30 05:34:56;;;;;;;4.78;4.38;;;;;;;12.46;100.00;95768.56;4979412;28;20824;-79
2021/08/30 05:37:22;;;;;;;5.40;5.00;;;;;;;12.50;100.00;95764.81;4978126;28;20481;-79
2021/08/30 05:39:47;;;;;;;5.10;4.60;;;;;;;12.57;100.00;95763.44;4995116;28;20648;-79
2021/08/30 05:42:13;;;;;;;7.63;4.93;;;;;;;12.66;100.00;95774.94;4995739;28;20879;-79
2021/08/30 05:44:39;;;;;;;6.20;5.28;;;;;;;12.55;100.00;95761.88;4977885;28;20434;-79
2021/08/30 05:47:05;;;;;;;7.03;5.57;;;;;;;12.57;100.00;95767.81;4977310;28;20489;-79
2021/08/30 05:49:30;;;;;;;6.35;5.72;;;;;;;12.67;100.00;95774.00;4995171;28;20414;-81
2021/08/30 05:51:56;;;;;;;6.20;5.60;;;;;;;12.67;100.00;95774.00;4975579;28;20454;-79
2021/08/30 05:54:21;;;;;;;5.70;5.20;;;;;;;12.68;100.00;95778.28;4977909;28;20434;-81
2021/08/30 05:56:47;;;;;;;6.50;5.90;;;;;;;12.60;100.00;95780.56;4998200;28;20428;-80
2021/08/30 05:59:12;;;;;;;8.88;6.63;;;;;;;12.57;100.00;95775.59;4992121;28;20453;-80
2021/08/30 06:01:41;;;;;;;9.13;6.20;;;;;;;12.59;100.00;95784.09;4990412;28;20426;-80
2021/08/30 06:04:06;;;;;;;7.13;6.47;;;;;;;12.67;100.00;95774.00;4976892;28;20433;-82
2021/08/30 06:06:32;;;;;;;7.90;6.65;;;;;;;12.66;100.00;95780.13;4976789;28;20430;-81
2021/08/30 06:08:57;;;;;;;6.93;6.30;;;;;;;12.71;100.00;95785.00;4977259;28;20426;-80
2021/08/30 06:11:23;;;;;;;7.32;6.60;;;;;;;12.68;100.00;95788.66;4993545;28;20441;-79
2021/08/30 06:13:48;;;;;;;7.20;6.50;;;;;;;12.69;100.00;95787.72;4975926;28;20438;-79
2021/08/30 06:16:14;;;;;;;7.23;6.53;;;;;;;12.58;100.00;95780.69;4973226;28;20428;-81
2021/08/30 06:18:41;;;;;;;6.50;5.70;;;;;;;12.66;100.00;95785.34;4967812;28;20454;-81
2021/08/30 06:21:06;;;;;;;6.28;5.68;;;;;;;12.65;100.00;95783.69;4976539;28;20418;-82
2021/08/30 06:23:32;;;;;;;7.20;5.80;;;;;;;12.68;100.00;95786.06;4990475;28;20796;-81
2021/08/30 06:25:59;;;;;;;6.33;5.47;;;;;;;12.75;100.00;95783.84;4990689;28;20422;-82
2021/08/30 06:28:24;;;;;;;6.07;5.43;;;;;;;12.76;100.00;95775.94;4976881;28;20795;-81
2021/08/30 06:30:50;;;;;;;6.18;5.65;;;;;;;12.78;100.00;95774.06;4976930;28;20480;-81
2021/08/30 06:33:15;;;;;;;5.70;5.20;;;;;;;12.82;100.00;95790.25;4988882;28;20470;-81
2021/08/30 06:35:43;;;;;;;6.93;5.43;;;;;;;12.83;100.00;95781.56;4975586;28;20614;-79
2021/08/30 06:38:08;;;;;;;7.53;6.07;;;;;;;12.82;100.00;95775.50;4975921;28;20974;-79
2021/08/30 06:40:34;;;;;;;6.43;5.70;;;;;;;12.96;100.00;95781.47;4992408;28;20422;-80
2021/08/30 06:42:59;;;;;;;7.95;6.15;;;;;;;13.06;100.00;95782.50;4975280;28;20836;-79
2021/08/30 06:45:27;;;;;;;7.25;6.15;;;;;;;13.01;100.00;95785.41;4974949;28;20430;-81
2021/08/30 06:47:53;;;;;;;10.93;6.65;;;;;;;13.10;100.00;95783.09;4975653;28;20430;-80
2021/08/30 06:50:18;;;;;;;6.45;5.82;;;;;;;13.09;100.00;95784.88;4975841;28;20419;-80
2021/08/30 06:52:45;;;;;;;8.27;6.40;;;;;;;12.99;100.00;95787.28;4993227;28;20429;-82
2021/08/30 06:55:11;;;;;;;6.68;6.03;;;;;;;13.02;100.00;95786.25;4990038;28;20450;-82
2021/08/30 06:57:36;;;;;;;7.80;5.97;;;;;;;13.01;100.00;95781.97;4973213;28;20927;-83
2021/08/30 07:00:02;;;;;;;7.37;6.50;;;;;;;13.01;100.00;95789.78;4959889;28;20427;-82
2021/08/30 07:02:28;;;;;;;8.27;6.77;;;;;;;13.14;100.00;95785.34;4974336;28;20418;-81
2021/08/30 07:04:53;;;;;;;7.27;6.30;;;;;;;13.11;100.00;95788.16;4982931;28;20457;-82
2021/08/30 07:07:18;;;;;;;7.90;6.30;;;;;;;13.14;100.00;95794.94;5000561;28;20414;-81
2021/08/30 07:09:45;;;;;;;7.25;6.63;;;;;;;13.17;100.00;95792.13;5001937;28;20425;-81
2021/08/30 07:12:11;;;;;;;8.23;7.43;;;;;;;13.07;100.00;95791.94;4978596;28;20434;-82
2021/08/30 07:14:36;;;;;;;9.05;7.05;;;;;;;13.08;100.00;95804.81;4977995;28;20421;-82
2021/08/30 07:17:02;;;;;;;9.20;7.60;;;;;;;13.08;100.00;95797.00;4978690;28;20832;-81
2021/08/30 07:19:27;;;;;;;9.17;7.90;;;;;;;13.10;100.00;95803.91;4977901;28;20916;-81
2021/08/30 07:21:53;;;;;;;10.00;8.33;;;;;;;13.18;100.00;95802.38;4976952;28;20430;-80
2021/08/30 07:24:18;;;;;;;8.37;7.37;;;;;;;13.12;100.00;95804.59;4994304;28;20477;-82
2021/08/30 07:26:45;;;;;;;8.47;7.67;;;;;;;13.06;100.00;95800.69;4979249;28;20457;-81
2021/08/30 07:29:10;;;;;;;11.50;7.88;;;;;;;12.95;100.00;95809.25;4995033;28;20478;-81
2021/08/30 07:31:37;;;;;;;11.57;7.87;;;;;;;13.00;100.00;95804.53;5017641;28;20898;-82
2021/08/30 07:34:02;;;;;;;8.98;8.07;;;;;;;13.02;100.00;95807.88;4999411;28;20421;-81
2021/08/30 07:36:28;;;;;;;11.05;8.05;;;;;;;12.97;100.00;95801.34;4999538;28;20975;-83
2021/08/30 07:38:54;;;;;;;11.75;7.72;;;;;;;13.00;100.00;95803.72;4999381;28;20420;-82
2021/08/30 07:41:19;;;;;;;10.10;7.20;;;;;;;12.96;100.00;95804.88;4998982;28;20427;-82
2021/08/30 07:43:46;;;;;;;8.40;7.20;;;;;;;12.94;100.00;95814.53;4999580;28;20416;-82
2021/08/30 07:46:12;;;;;;;8.95;8.00;;;;;;;12.97;100.00;95809.97;5016663;28;20851;-83
2021/08/30 07:48:37;;;;;;;8.33;7.53;;;;;;;12.98;100.00;95810.81;4999729;28;20448;-82
2021/08/30 07:51:03;;;;;;;8.93;7.60;;;;;;;12.93;100.00;95813.72;4999654;28;20431;-79
2021/08/30 07:53:29;;;;;;;8.25;7.45;;;;;;;12.98;100.00;95822.03;4999895;28;20416;-80
2021/08/30 07:55:55;;;;;;;9.30;7.47;;;;;;;12.93;100.00;95825.88;4988850;28;21064;-79
2021/08/30 07:58:21;;;;;;;8.93;7.78;;;;;;;12.87;100.00;95824.56;4978855;28;20473;-80
2021/08/30 08:00:48;;;;;;;12.93;7.90;;;;;;;12.91;100.00;95831.22;4979674;28;20426;-80
2021/08/30 08:03:14;;;;;;;8.90;7.90;;;;;;;12.87;100.00;95834.97;4982224;28;20427;-79
2021/08/30 08:05:39;;;;;;;8.23;7.43;;;;;;;12.88;100.00;95828.81;4983295;28;20504;-78
2021/08/30 08:08:06;;;;;;;7.97;7.17;;;;;;;12.91;100.00;95832.97;4997834;28;20464;-79
2021/08/30 08:10:32;;;;;;;10.05;7.07;;;;;;;12.94;100.00;95825.81;4979871;28;20450;-80
2021/08/30 08:12:58;;;;;;;8.70;7.82;;;;;;;12.93;100.00;95838.88;4998082;28;20452;-80
2021/08/30 08:15:23;;;;;;;8.27;7.45;;;;;;;13.11;100.00;95832.38;4998493;28;20417;-80
2021/08/30 08:17:50;;;;;;;8.73;7.53;;;;;;;13.01;100.00;95832.19;5000606;28;20937;-79
2021/08/30 08:20:15;;;;;;;7.25;6.55;;;;;;;13.10;100.00;95838.53;5001356;28;20455;-78
2021/08/30 08:22:42;;;;;;;9.67;7.20;;;;;;;12.99;100.00;95847.09;5017319;28;20503;-81
2021/08/30 08:25:09;;;;;;;7.82;7.13;;;;;;;13.04;100.00;95844.16;5003955;28;20538;-79
2021/08/30 08:27:34;;;;;;;8.68;7.05;;;;;;;12.96;100.00;95841.28;4987804;28;20426;-79
2021/08/30 08:30:00;;;;;;;6.47;5.75;;;;;;;12.96;100.00;95844.69;4986503;28;20473;-79
2021/08/30 08:32:26;;;;;;;7.20;5.38;;;;;;;12.96;100.00;95851.66;4983869;28;20441;-79
2021/08/30 08:34:52;;;;;;;5.43;4.93;;;;;;;12.99;100.00;95852.28;4980332;28;20935;-79
2021/08/30 08:37:18;;;;;;;6.40;5.80;;;;;;;13.10;100.00;95853.31;4997144;28;20462;-79
2021/08/30 08:39:44;;;;;;;6.10;5.50;;;;;;;13.15;100.00;95854.63;4978373;28;20473;-80
2021/08/30 08:42:09;;;;;;;5.95;5.28;;;;;;;13.12;100.00;95857.44;4978967;28;20422;-79
2021/08/30 08:44:36;;;;;;;5.87;5.07;;;;;;;13.18;100.00;95859.59;4996764;28;20424;-79
2021/08/30 08:47:02;;;;;;;5.75;5.15;;;;;;;13.13;100.00;95859.13;4995607;28;20429;-79
2021/08/30 08:49:27;;;;;;;5.90;5.38;;;;;;;13.24;100.00;95860.97;4978311;28;20426;-79
2021/08/30 08:51:54;;;;;;;6.70;6.10;;;;;;;13.25;100.00;95866.06;4978620;28;20422;-80
2021/08/30 08:54:19;;;;;;;7.80;6.72;;;;;;;13.36;100.00;95859.25;4978259;28;20433;-79
2021/08/30 08:56:45;;;;;;;8.13;6.77;;;;;;;13.36;100.00;95860.09;4995765;28;20497;-83
2021/08/30 08:59:10;;;;;;;7.60;6.70;;;;;;;13.31;100.00;95867.38;4978940;28;20485;-83
2021/08/30 09:01:37;;;;;;;10.80;9.07;;;;;;;13.29;100.00;95864.91;4974517;28;20490;-83
2021/08/30 09:04:03;;;;;;;12.65;8.25;;;;;;;13.28;100.00;95873.66;4978881;28;20415;-84
2021/08/30 09:06:31;;;;;;;9.73;8.50;;;;;;;13.22;100.00;95868.84;4978639;28;20518;-84
2021/08/30 09:08:59;;;;;;;12.30;8.40;;;;;;;13.15;100.00;95875.41;4978974;28;20780;-83
2021/08/30 09:11:33;;;;;;;10.93;8.77;;;;;;;13.20;100.00;95878.53;4979500;28;20499;-84
2021/08/30 09:13:58;;;;;;;9.73;8.35;;;;;;;13.23;100.00;95862.72;4979130;28;20658;-84
2021/08/30 09:16:26;;;;;;;10.65;9.50;;;;;;;13.20;100.00;95882.88;4976067;28;20430;-80
2021/08/30 09:19:02;;;;;;;10.40;8.93;;;;;;;13.14;100.00;95884.16;4977171;28;20527;-77
2021/08/30 09:21:27;;;;;;;10.40;9.35;;;;;;;13.22;100.00;95884.44;4960336;28;20506;-79
2021/08/30 09:23:53;;;;;;;13.83;9.47;;;;;;;13.14;100.00;95885.94;4960426;28;20977;-80
2021/08/30 09:26:21;;;;;;;10.13;9.13;;;;;;;13.20;100.00;95882.88;4971711;28;20768;-80
2021/08/30 09:28:51;;;;;;;11.13;8.77;;;;;;;13.17;100.00;95883.97;4978565;28;20505;-77
2021/08/30 09:31:17;;;;;;;11.10;9.45;;;;;;;13.22;100.00;95883.63;4975961;28;20528;-79
2021/08/30 09:33:46;;;;;;;10.27;8.27;;;;;;;13.23;100.00;95875.72;4960195;28;20941;-80
2021/08/30 09:36:11;;;;;;;9.60;8.40;;;;;;;13.23;100.00;95885.28;4976615;28;20416;-80
2021/08/30 09:38:37;;;;;;;10.57;8.63;;;;;;;13.18;100.00;95883.00;4975566;28;20906;-80
2021/08/30 09:41:05;;;;;;;10.98;9.75;;;;;;;13.20;100.00;95869.88;4976556;28;20523;-80
2021/08/30 09:43:32;;;;;;;10.73;9.60;;;;;;;13.37;100.00;95873.91;4974185;28;20478;-80
2021/08/30 09:46:00;;;;;;;9.88;8.88;;;;;;;13.29;100.00;95875.28;4978634;28;20423;-79
2021/08/30 09:48:26;;;;;;;10.95;9.75;;;;;;;13.29;100.00;95885.69;4977623;28;20454;-80
2021/08/30 09:50:51;;;;;;;12.13;10.35;;;;;;;13.17;100.00;95876.16;4979358;28;20419;-80
2021/08/30 09:53:17;;;;;;;11.83;9.63;;;;;;;13.25;100.00;95875.63;4995661;28;20527;-80
2021/08/30 09:55:43;;;;;;;13.07;10.13;;;;;;;13.31;100.00;95870.84;4978152;28;20427;-80
2021/08/30 09:58:13;;;;;;;11.67;10.53;;;;;;;13.32;100.00;95866.44;4994426;28;20472;-78
2021/08/30 10:00:44;;;;;;;16.48;10.65;;;;;;;13.32;100.00;95866.44;4968719;28;20424;-80
2021/08/30 10:03:10;;;;;;;11.35;10.18;;;;;;;13.41;100.00;95875.34;4974189;28;20480;-80
2021/08/30 10:05:37;;;;;;;11.47;10.27;;;;;;;13.44;100.00;95869.94;4979143;28;20427;-80
2021/08/30 10:08:03;;;;;;;12.23;10.97;;;;;;;13.44;100.00;95872.53;4978739;28;20544;-80
2021/08/30 10:10:29;;;;;;;11.10;9.93;;;;;;;13.50;100.00;95865.13;4978799;28;20457;-79
2021/08/30 10:12:55;;;;;;;12.02;10.10;;;;;;;13.60;100.00;95874.84;4979563;28;20423;-79
2021/08/30 10:15:23;;;;;;;12.77;10.70;;;;;;;13.63;100.00;95875.44;4997590;28;20896;-80
2021/08/30 10:17:51;;;;;;;14.07;11.35;;;;;;;13.71;100.00;95870.50;4977465;28;20446;-80
2021/08/30 10:20:18;;;;;;;11.50;10.20;;;;;;;13.72;100.00;95876.53;4976719;28;20447;-81
2021/08/30 10:22:55;;;;;;;11.85;10.43;;;;;;;13.95;100.00;95878.28;4977140;28;20422;-81
2021/08/30 10:25:21;;;;;;;17.02;11.50;;;;;;;14.04;100.00;95876.75;4976831;28;20513;-80
2021/08/30 10:27:55;;;;;;;14.80;10.30;;;;;;;14.00;100.00;95876.16;4977730;28;20536;-80
2021/08/30 10:30:21;;;;;;;11.90;10.65;;;;;;;14.15;100.00;95868.97;4977507;28;20430;-80
2021/08/30 10:32:54;;;;;;;13.00;10.48;;;;;;;14.17;100.00;95869.69;4977179;28;20946;-80
2021/08/30 10:35:22;;;;;;;13.95;11.05;;;;;;;14.23;100.00;95879.63;4977180;28;20457;-80
2021/08/30 10:37:51;;;;;;;11.53;10.43;;;;;;;14.06;100.00;95877.50;4994361;28;20559;-80
2021/08/30 10:40:20;;;;;;;14.00;10.68;;;;;;;14.14;100.00;95882.94;4976512;28;20418;-79
2021/08/30 10:42:57;;;;;;;12.00;10.60;;;;;;;14.12;100.00;95884.00;4993980;28;20426;-80
2021/08/30 10:45:29;;;;;;;14.05;10.82;;;;;;;14.36;100.00;95882.16;4993763;28;20761;-80
2021/08/30 10:48:00;;;;;;;11.57;10.05;;;;;;;14.46;100.00;95884.88;4993884;28;20418;-79
2021/08/30 10:50:25;;;;;;;10.95;9.88;;;;;;;14.45;100.00;95878.00;4994898;28;20868;-80
2021/08/30 10:53:02;;;;;;;11.80;10.57;;;;;;;14.56;100.00;95875.44;4993401;28;20491;-79
2021/08/30 10:55:35;;;;;;;11.95;10.65;;;;;;;14.58;100.00;95885.78;4993178;28;20429;-79
2021/08/30 10:58:10;;;;;;;14.43;10.43;;;;;;;14.56;100.00;95890.25;4993628;28;20481;-80
2021/08/30 11:00:35;;;;;;;13.10;10.10;;;;;;;14.26;100.00;95883.78;4993091;28;20438;-80
2021/08/30 11:03:02;;;;;;;12.13;9.67;;;;;;;14.16;100.00;95888.03;4976235;28;20429;-80
2021/08/30 11:05:29;;;;;;;11.65;9.65;;;;;;;14.04;100.00;95892.38;4975660;28;21123;-80
2021/08/30 11:07:55;;;;;;;9.52;8.63;;;;;;;14.01;100.00;95892.59;4975945;28;20546;-81
2021/08/30 11:10:23;;;;;;;10.85;9.52;;;;;;;13.92;100.00;95886.31;4976165;28;20430;-80
2021/08/30 11:12:49;;;;;;;9.68;8.50;;;;;;;13.85;100.00;95889.50;4980756;28;20437;-81
2021/08/30 11:15:14;;;;;;;13.00;9.10;;;;;;;13.80;100.00;95895.88;4975264;28;20418;-80
2021/08/30 11:17:40;;;;;;;10.82;8.82;;;;;;;13.84;100.00;95893.06;4975721;28;20429;-79
2021/08/30 11:20:08;;;;;;;10.40;8.95;;;;;;;13.89;100.00;95896.97;4992977;28;20437;-78
2021/08/30 11:22:34;;;;;;;9.90;8.90;;;;;;;13.98;100.00;95893.69;4992549;28;20454;-79